Aeroporto :
LOGIN :

Iscrizione | Disclaimer

   EN    FR    IT 

 










Sommario :    VFR   VFR Marginale   IFR   IFR Intensivo   IFR Molto Intensivo
Visibilità : 
Base nubi : 
>= 8 km
>= 3000ft
5 / 8 km
1000 / 3000 ft
1500m / 5 km
500 / 1000 ft
800 / 1500m
200 / 500 ft
< 800m
< 200 ft
Simboli :   Temporali  Nebbia  Neve Forte  Precipitazioni Forti  Vento > 20 kt
SIGMETs :   Varie  Temporali  Ghiacco  Turbolenza  Onda orograficha  Ceneri Vulcaniche






- Altitudine del aeroporto : 502 ft
- Codice IATA : ORK


EICK - Cork

ULTIMO METAR :
  • 171200Z 29017KT 9999 FEW012 FEW018CB BKN250 04/02 Q1009 RERA NOSIG

METARs OBSOLETI :
  • 171130Z 27014KT 9999 FEW015 FEW018CB SCT025 07/03 Q1008 NOSIG
  • 171100Z 26017KT 9999 FEW015 FEW018CB BKN250 06/03 Q1007 NOSIG
  • 171030Z 26015KT 9999 FEW018CB BKN250 06/02 Q1007 NOSIG
  • 171000Z 26015KT 9999 FEW018CB BKN250 06/03 Q1006 NOSIG
  • 170930Z 26012KT 9999 FEW018CB BKN250 06/03 Q1006 NOSIG

TAF TAF EICK
Valido dal 17 a 12 ore il 18 a 12 ore UTC


171100Z 1712/1812 25015KT 9999 FEW015 SCT025
TEMPO 1712/1718 27020G30KT -SHRA FEW018CB
PROB40
TEMPO 1722/1804 26015G25KT
TEMPO 1808/1812 25020G33KT



MetMap, La meteo Aeronautica in un colpo d'occhio ! - Copyright ORBIFLY Dicembre 2007 - Disclaimer

ORBIFLY MET'MAP TEAM :

Programmazione e sviluppo : Alexandra Zaïnal
Concezione : Baudouin d'Aumeries
Aiuto per la programmazione : Marc-Olivier Méhu
Supporto tecnico e logistico : Manuel Goepfert
Aiuto per la traduzione : Arnaldo La Scala

Contatto : metmap@orbifly.com




FONTI E CREDITI :

   NOAA